LIRF Airport Information

Runway Information
Runway 07 Length 10849 ft width 148 ft
Elevation 7 ft Threshold 1365 ft Heading 70
Runway 25 Length 10849 ft Width 148 ft
Elevation 7 ft Threshold 0 ft Heading 250
Runway 16C Length 11818 ft width 148 ft
Elevation 11 ft Threshold 0 ft Heading 163
Runway 34C Length 11818 ft Width 148 ft
Elevation 4 ft Threshold 0 ft Heading 343
Runway 16L Length 12795 ft width 197 ft
Elevation 14 ft Threshold 0 ft Heading 163
Runway 34R Length 12795 ft Width 197 ft
Elevation 7 ft Threshold 0 ft Heading 343
Runway 16R Length 12795 ft width 197 ft
Elevation 7 ft Threshold 0 ft Heading 163
Runway 34L Length 12795 ft Width 197 ft
Elevation 8 ft Threshold 1053 ft Heading 343
Airport Frequencies
Type ARR Name ROMA DIREC Frequency 119.2 MHZ
Type ATIS Name ATIS Frequency 114.9 MHZ
Type CLD Name FIUME RAMP Frequency 121.725 MHZ
Type GND Name FIUME GND/ Frequency 121.8 MHZ
Type TWR Name FIUME TWR Frequency 118.7 MHZ
Airport Navaids
Type NDB Name Fiumicino Frequency 354 KHZ
Type NDB Name Fiumicino Frequency 421 KHZ
Type NDB Name Fiumicino Frequency 345 KHZ
Type VOR-DME Name Ostia Frequency 114900 KHZ
Type NDB Name Ostia Frequency 321 KHZ
Airport Weather Information & NOTAM
ADDS - METARS form results

(1542 UTC 25 June 2018)
 
METAR text: LIRF 251520Z 12015KT 9999 FEW025CB SCT050 22/12 Q1014 NOSIG
Conditions at: LIRF (ROME/FIUMICINO , IT) observed 1520 UTC 25 June 2018
Temperature: 22.0°C (72°F)
Dewpoint: 12.0°C (54°F) [RH = 53%]
Pressure (altimeter): 29.94 inches Hg (1014.0 mb)
Winds: from the ESE (120 degrees) at 17 MPH (15 knots; 7.8 m/s)
Visibility: 6 or more miles (10+ km)
Ceiling: at least 12,000 feet AGL
Clouds: few clouds at 2500 feet AGL
scattered clouds at 5000 feet AGL
Weather: no significant weather observed at this time

METAR text: LIRF 251450Z 03005KT 350V090 9999 FEW025CB SCT035 26/09 Q1013 NOSIG
Conditions at: LIRF (ROME/FIUMICINO , IT) observed 1450 UTC 25 June 2018
Temperature: 26.0°C (79°F)
Dewpoint: 9.0°C (48°F) [RH = 34%]
Pressure (altimeter): 29.91 inches Hg (1013.0 mb)
Winds: from the NNE (30 degrees) at 6 MPH (5 knots; 2.6 m/s)
Visibility: 6 or more miles (10+ km)
Ceiling: at least 12,000 feet AGL
Clouds: few clouds at 2500 feet AGL
scattered clouds at 3500 feet AGL
Weather: no significant weather observed at this time